createdAt,value
2018-02-08T00:02:10.623Z,43.73
2018-02-08T00:07:05.881Z,41.27
2018-02-08T00:12:01.201Z,39.43
2018-02-08T00:16:56.459Z,43.07
2018-02-08T00:21:50.858Z,41.43
2018-02-08T00:26:45.267Z,37.00
2018-02-08T00:31:39.669Z,43.33
2018-02-08T00:36:33.965Z,40.97
2018-02-08T00:41:28.288Z,40.50
2018-02-08T00:46:22.576Z,42.53
2018-02-08T00:51:16.867Z,44.23
2018-02-08T00:56:11.321Z,45.23
2018-02-08T01:01:05.573Z,45.53
2018-02-08T01:05:59.871Z,45.50
2018-02-08T01:10:54.196Z,43.03
2018-02-08T01:15:48.501Z,43.53
2018-02-08T01:20:42.776Z,45.97
2018-02-08T01:25:37.204Z,49.47
2018-02-08T01:30:31.512Z,43.77
2018-02-08T01:35:25.823Z,44.60
2018-02-08T01:40:20.202Z,51.37
2018-02-08T01:45:14.694Z,50.20
2018-02-08T01:50:09.040Z,51.87
2018-02-08T01:55:03.322Z,48.73
2018-02-08T01:59:57.588Z,51.23
2018-02-08T02:04:51.934Z,53.23
2018-02-08T02:09:46.217Z,58.23
2018-02-08T02:14:40.506Z,58.63
2018-02-08T02:19:34.601Z,55.53
2018-02-08T02:24:28.999Z,47.13
2018-02-08T02:29:23.290Z,53.73
2018-02-08T02:34:17.589Z,49.37
2018-02-08T02:39:11.863Z,54.30
2018-02-08T02:44:07.065Z,50.67
2018-02-08T02:49:01.354Z,48.87
2018-02-08T02:53:55.644Z,54.60
2018-02-08T02:58:49.924Z,51.37
2018-02-08T03:03:44.203Z,55.73
2018-02-08T03:08:38.480Z,59.70
2018-02-08T03:13:33.542Z,52.87
2018-02-08T03:18:27.968Z,54.83
2018-02-08T03:23:22.244Z,51.87
2018-02-08T03:28:16.533Z,53.97
2018-02-08T03:33:10.629Z,56.33
2018-02-08T03:38:05.169Z,52.13
2018-02-08T03:42:59.466Z,54.60
2018-02-08T03:47:53.765Z,53.87
2018-02-08T03:52:48.053Z,61.47
2018-02-08T03:57:42.642Z,62.77
2018-02-08T04:02:36.930Z,57.40
2018-02-08T04:07:31.244Z,55.07
2018-02-08T04:12:25.746Z,53.43
2018-02-08T04:17:20.024Z,56.90
2018-02-08T04:22:15.346Z,53.40
2018-02-08T04:27:10.395Z,56.77
2018-02-08T04:32:04.697Z,58.23
2018-02-08T04:36:58.979Z,60.40
2018-02-08T04:48:08.680Z,57.70
2018-02-08T04:53:02.864Z,54.73
2018-02-08T04:57:57.917Z,48.07
2018-02-08T05:02:54.167Z,52.77
2018-02-08T05:07:49.285Z,49.10
2018-02-08T05:12:43.689Z,56.13
2018-02-08T05:17:38.153Z,47.97
2018-02-08T05:22:33.206Z,55.73
2018-02-08T05:27:27.595Z,54.17
2018-02-08T05:32:21.882Z,49.53
2018-02-08T05:37:16.952Z,50.57
2018-02-08T05:42:11.366Z,55.77
2018-02-08T05:47:05.646Z,52.67
2018-02-08T05:51:59.925Z,49.33
2018-02-08T05:56:54.451Z,58.50
2018-02-08T06:01:48.750Z,56.23
2018-02-08T06:06:43.088Z,54.03
2018-02-08T06:11:37.520Z,52.67
2018-02-08T06:16:32.568Z,55.70
2018-02-08T06:21:34.192Z,45.30
2018-02-08T06:26:29.056Z,55.67
2018-02-08T06:31:23.358Z,60.50
2018-02-08T06:36:17.651Z,50.67
2018-02-08T06:41:12.326Z,62.23
2018-02-08T06:46:07.375Z,52.87
2018-02-08T06:51:01.678Z,52.40
2018-02-08T06:55:56.033Z,54.70
2018-02-08T07:00:50.491Z,54.07
2018-02-08T07:05:44.899Z,51.77
2018-02-08T07:10:39.187Z,54.90
2018-02-08T07:15:33.954Z,58.63
2018-02-08T07:20:29.030Z,55.40
2018-02-08T07:25:23.086Z,59.37
2018-02-08T07:30:18.654Z,61.70
2018-02-08T07:35:12.945Z,59.87
2018-02-08T07:40:07.244Z,55.87
2018-02-08T07:45:01.626Z,54.00
2018-02-08T07:49:56.683Z,55.87
2018-02-08T07:54:51.029Z,47.10
2018-02-08T07:59:46.132Z,46.97
2018-02-08T08:04:40.760Z,41.37
2018-02-08T08:09:35.730Z,37.97
2018-02-08T08:14:30.097Z,38.33
2018-02-08T08:19:24.360Z,36.27
2018-02-08T08:24:18.660Z,38.60
2018-02-08T08:29:14.590Z,36.17
2018-02-08T08:34:09.443Z,37.17
2018-02-08T08:39:03.730Z,41.23
2018-02-08T08:43:59.117Z,42.73
2018-02-08T08:48:53.408Z,38.87
2018-02-08T08:53:47.702Z,34.97
2018-02-08T08:58:42.018Z,36.83
2018-02-08T09:03:36.301Z,35.50
2018-02-08T09:08:30.595Z,35.47
2018-02-08T09:13:24.902Z,34.13
2018-02-08T09:18:19.207Z,38.60
2018-02-08T09:23:13.537Z,36.30
2018-02-08T09:28:07.826Z,35.90
2018-02-08T09:33:02.114Z,36.53
2018-02-08T09:37:56.410Z,36.67
2018-02-08T09:42:50.699Z,37.17
2018-02-08T09:47:45.026Z,36.70
2018-02-08T09:52:39.319Z,38.50
2018-02-08T09:57:33.778Z,38.80
2018-02-08T10:02:28.837Z,36.10
2018-02-08T10:07:23.146Z,38.50
2018-02-08T10:12:17.438Z,40.70
2018-02-08T10:17:11.712Z,44.60
2018-02-08T10:22:05.984Z,45.60
2018-02-08T10:27:01.029Z,40.37
2018-02-08T10:31:55.566Z,40.23
2018-02-08T10:36:50.191Z,44.93
2018-02-08T10:41:44.401Z,45.90
2018-02-08T10:46:38.804Z,43.70
2018-02-08T10:51:34.580Z,48.00
2018-02-08T10:56:28.891Z,43.10
2018-02-08T11:01:23.177Z,47.97
2018-02-08T11:06:17.457Z,48.60
2018-02-08T11:11:12.680Z,46.40
2018-02-08T11:16:07.724Z,45.47
2018-02-08T11:21:02.146Z,45.80
2018-02-08T11:25:56.538Z,43.83
2018-02-08T11:30:50.839Z,42.40
2018-02-08T11:35:45.139Z,47.13
2018-02-08T11:40:42.400Z,47.67
2018-02-08T11:45:37.346Z,45.63
2018-02-08T11:50:31.621Z,50.20
2018-02-08T11:55:25.893Z,51.00
2018-02-08T12:00:20.979Z,45.77
2018-02-08T12:05:15.243Z,46.37
2018-02-08T12:10:09.988Z,47.57
2018-02-08T12:15:04.260Z,46.70
2018-02-08T12:19:58.908Z,43.03
2018-02-08T12:24:53.205Z,46.20
2018-02-08T12:29:47.470Z,42.37
2018-02-08T12:34:41.773Z,37.93
2018-02-08T12:39:36.808Z,39.73
2018-02-08T12:44:31.142Z,44.63
2018-02-08T12:49:25.729Z,41.47
2018-02-08T12:54:20.015Z,35.87
2018-02-08T12:59:14.417Z,37.83
2018-02-08T13:04:09.630Z,41.83
2018-02-08T13:09:03.482Z,38.07
2018-02-08T13:13:58.531Z,34.97
2018-02-08T13:18:52.945Z,41.87
2018-02-08T13:23:47.229Z,39.97
2018-02-08T13:28:41.562Z,41.67
2018-02-08T13:33:36.042Z,38.93
2018-02-08T13:38:30.130Z,44.40
2018-02-08T13:43:24.884Z,43.27
2018-02-08T13:48:20.924Z,45.70
2018-02-08T13:53:19.040Z,41.13
2018-02-08T13:58:14.821Z,41.27
2018-02-08T14:03:08.919Z,43.60
2018-02-08T14:08:03.619Z,38.93
2018-02-08T14:12:57.999Z,39.03
2018-02-08T14:17:53.276Z,42.17
2018-02-08T14:22:47.645Z,40.97
2018-02-08T14:27:42.042Z,39.93
2018-02-08T14:32:36.460Z,39.93
2018-02-08T14:37:30.882Z,37.53
2018-02-08T14:42:26.702Z,42.13
2018-02-08T14:47:21.093Z,39.53
2018-02-08T14:52:15.628Z,41.40
2018-02-08T14:57:09.938Z,38.37
2018-02-08T15:02:04.937Z,44.27
2018-02-08T15:06:59.264Z,38.27
2018-02-08T15:11:53.625Z,42.03
2018-02-08T15:16:48.039Z,40.73
2018-02-08T15:21:42.440Z,46.93
2018-02-08T15:26:36.777Z,47.67
2018-02-08T15:31:32.836Z,42.50
2018-02-08T15:36:27.966Z,47.20
2018-02-08T15:41:23.199Z,45.20
2018-02-08T15:46:18.339Z,45.97
2018-02-08T15:51:12.707Z,44.47
2018-02-08T15:56:07.752Z,39.47
2018-02-08T16:01:02.043Z,48.13
2018-02-08T16:05:56.325Z,46.00
2018-02-08T16:10:51.364Z,45.70
2018-02-08T16:15:45.780Z,48.47
2018-02-08T16:20:40.232Z,47.50
2018-02-08T16:25:34.504Z,45.73
2018-02-08T16:30:28.940Z,46.77
2018-02-08T16:35:23.617Z,45.60
2018-02-08T16:40:18.385Z,42.17
2018-02-08T16:45:13.529Z,47.10
2018-02-08T16:50:08.039Z,42.20
2018-02-08T16:55:02.712Z,43.33
2018-02-08T16:59:57.059Z,43.63
2018-02-08T17:04:51.143Z,42.07
2018-02-08T17:09:45.229Z,36.20
2018-02-08T17:14:40.181Z,45.43
2018-02-08T17:19:35.416Z,39.97
2018-02-08T17:24:30.686Z,44.10
2018-02-08T17:29:24.964Z,47.77
2018-02-08T17:34:19.258Z,46.97
2018-02-08T17:39:13.615Z,44.80
2018-02-08T17:44:07.975Z,44.53
2018-02-08T17:49:02.293Z,49.00
2018-02-08T17:53:56.703Z,43.10
2018-02-08T17:58:51.002Z,50.23
2018-02-08T18:03:45.294Z,42.33
2018-02-08T18:08:39.993Z,41.67
2018-02-08T18:13:35.411Z,46.23
2018-02-08T18:18:29.747Z,46.63
2018-02-08T18:23:24.335Z,42.50
2018-02-08T18:28:18.680Z,47.43
2018-02-08T18:33:13.781Z,40.93
2018-02-08T18:38:08.069Z,43.17
2018-02-08T18:43:02.361Z,44.10
2018-02-08T18:47:56.677Z,45.37
2018-02-08T18:52:51.225Z,47.77
2018-02-08T18:57:45.542Z,50.87
2018-02-08T19:02:40.770Z,45.93
2018-02-08T19:07:35.073Z,53.87
2018-02-08T19:12:29.416Z,62.63
2018-02-08T19:17:24.615Z,60.97
2018-02-08T19:22:18.942Z,65.97
2018-02-08T19:27:13.424Z,70.93
2018-02-08T19:32:14.866Z,70.60
2018-02-08T19:37:09.331Z,70.30
2018-02-08T19:42:03.724Z,70.83
2018-02-08T19:46:58.259Z,66.13
2018-02-08T19:51:52.599Z,73.77
2018-02-08T19:56:46.717Z,71.77
2018-02-08T20:01:41.242Z,75.43
2018-02-08T20:06:35.553Z,72.83
2018-02-08T20:11:30.839Z,75.60
2018-02-08T20:16:26.136Z,72.50
2018-02-08T20:21:20.658Z,81.57
2018-02-08T20:26:15.280Z,81.27
2018-02-08T20:31:20.609Z,71.33
2018-02-08T20:36:15.170Z,74.50
2018-02-08T20:41:09.482Z,80.20
2018-02-08T20:46:04.709Z,83.33
2018-02-08T20:50:59.869Z,83.53
2018-02-08T20:55:54.169Z,76.63
2018-02-08T21:00:48.647Z,78.33
2018-02-08T21:05:42.951Z,76.77
2018-02-08T21:10:37.256Z,84.50
2018-02-08T21:15:31.654Z,76.43
2018-02-08T21:20:25.970Z,80.23
2018-02-08T21:25:20.349Z,85.10
2018-02-08T21:30:15.421Z,76.17
2018-02-08T21:35:09.738Z,88.43
2018-02-08T21:40:05.368Z,93.77
2018-02-08T21:44:59.663Z,80.97
2018-02-08T21:49:53.978Z,76.53
2018-02-08T21:54:48.346Z,83.50
2018-02-08T21:59:42.632Z,82.87
2018-02-08T22:04:36.962Z,89.77
2018-02-08T22:09:31.280Z,81.97
2018-02-08T22:14:25.880Z,86.93
2018-02-08T22:19:20.375Z,78.13
2018-02-08T22:24:14.682Z,77.37
2018-02-08T22:29:08.958Z,86.13
2018-02-08T22:34:03.270Z,85.30
2018-02-08T22:38:57.564Z,90.70
2018-02-08T22:43:51.892Z,87.60
2018-02-08T22:48:46.374Z,85.47
2018-02-08T22:53:40.674Z,87.90
2018-02-08T22:58:34.982Z,87.20
2018-02-08T23:03:29.299Z,88.43
2018-02-08T23:08:23.569Z,85.13
2018-02-08T23:13:17.870Z,83.43
2018-02-08T23:18:12.275Z,86.43
2018-02-08T23:23:06.564Z,91.33
2018-02-08T23:28:00.997Z,80.53
2018-02-08T23:32:55.367Z,89.90
2018-02-08T23:37:49.669Z,96.30
2018-02-08T23:42:44.071Z,88.80
2018-02-08T23:47:38.400Z,88.37
2018-02-08T23:52:32.708Z,88.83
2018-02-08T23:57:27.008Z,92.17
